Nutting Lake, Massachusetts
Current Conditions -  °F | °C
As of 7:56 PM on Tuesday 27 Jan 2015 (Local Time) from KBED Reporting Station
Light Snow Light Snow  
Wind Chill: -5°   Ceiling: 7500
Heat Index: 13°   Visibility: 5mi
Dew Point:   Wind: 20mph
Humidity: 74%   Direction: 320°NW
Pressure: 29.6"   Gusts: 30mph
Location:  42.54°N, 71.27°W
Report Text: KBED 280056Z AUTO 32017G26KT 5SM -SN FEW060 OVC075 M11/M14 A2960 RMK AO2 PK WND 31028/0040 SLP043 P0000 T11061144 TSNO $
Loading
Personal Weather Stations






























Interactive Weather Map New forecast layout! Learn more

10-Day Weather Forecast

Advertisements
Track Severe Weather on mobile